sensor_id;sensor_type;location;lat;lon;timestamp;temperature;humidity
24426;DHT22;12611;44.446;26.000;2023-09-07T00:02:11;22.90;54.10
24426;DHT22;12611;44.446;26.000;2023-09-07T00:04:39;22.90;54.20
24426;DHT22;12611;44.446;26.000;2023-09-07T00:07:08;22.80;54.20
24426;DHT22;12611;44.446;26.000;2023-09-07T00:09:37;22.80;54.30
24426;DHT22;12611;44.446;26.000;2023-09-07T00:12:06;22.80;54.40
24426;DHT22;12611;44.446;26.000;2023-09-07T00:14:35;22.80;54.40
24426;DHT22;12611;44.446;26.000;2023-09-07T00:17:04;22.70;54.40
24426;DHT22;12611;44.446;26.000;2023-09-07T00:19:34;22.70;54.50
24426;DHT22;12611;44.446;26.000;2023-09-07T00:22:04;22.70;54.60
24426;DHT22;12611;44.446;26.000;2023-09-07T00:24:33;22.70;55.20
24426;DHT22;12611;44.446;26.000;2023-09-07T00:27:01;22.60;54.50
24426;DHT22;12611;44.446;26.000;2023-09-07T00:29:33;22.60;54.50
24426;DHT22;12611;44.446;26.000;2023-09-07T00:32:02;22.60;54.60
24426;DHT22;12611;44.446;26.000;2023-09-07T00:34:31;22.60;54.70
24426;DHT22;12611;44.446;26.000;2023-09-07T00:37:02;22.50;54.70
24426;DHT22;12611;44.446;26.000;2023-09-07T00:39:30;22.50;54.70
24426;DHT22;12611;44.446;26.000;2023-09-07T00:41:59;22.50;54.70
24426;DHT22;12611;44.446;26.000;2023-09-07T00:44:27;22.50;54.70
24426;DHT22;12611;44.446;26.000;2023-09-07T00:46:56;22.50;54.80
24426;DHT22;12611;44.446;26.000;2023-09-07T00:49:26;22.40;54.70
24426;DHT22;12611;44.446;26.000;2023-09-07T00:51:56;22.40;54.80
24426;DHT22;12611;44.446;26.000;2023-09-07T00:54:28;22.40;55.00
24426;DHT22;12611;44.446;26.000;2023-09-07T00:56:57;22.40;55.00
24426;DHT22;12611;44.446;26.000;2023-09-07T00:59:26;22.40;55.10
24426;DHT22;12611;44.446;26.000;2023-09-07T01:01:56;22.30;55.10
24426;DHT22;12611;44.446;26.000;2023-09-07T01:04:25;22.20;55.10
24426;DHT22;12611;44.446;26.000;2023-09-07T01:06:57;22.30;55.10
24426;DHT22;12611;44.446;26.000;2023-09-07T01:09:30;22.20;55.20
24426;DHT22;12611;44.446;26.000;2023-09-07T01:12:00;22.20;55.20
24426;DHT22;12611;44.446;26.000;2023-09-07T01:14:28;22.10;55.20
24426;DHT22;12611;44.446;26.000;2023-09-07T01:16:57;22.10;55.30
24426;DHT22;12611;44.446;26.000;2023-09-07T01:19:26;22.10;55.40
24426;DHT22;12611;44.446;26.000;2023-09-07T01:22:00;22.10;55.50
24426;DHT22;12611;44.446;26.000;2023-09-07T01:24:31;22.10;55.50
24426;DHT22;12611;44.446;26.000;2023-09-07T01:27:02;22.00;55.60
24426;DHT22;12611;44.446;26.000;2023-09-07T01:29:31;22.00;55.80
24426;DHT22;12611;44.446;26.000;2023-09-07T01:32:01;22.00;55.90
24426;DHT22;12611;44.446;26.000;2023-09-07T01:34:29;21.90;56.00
24426;DHT22;12611;44.446;26.000;2023-09-07T01:37:00;21.90;56.10
24426;DHT22;12611;44.446;26.000;2023-09-07T01:39:28;21.80;56.10
24426;DHT22;12611;44.446;26.000;2023-09-07T01:41:58;21.80;56.30
24426;DHT22;12611;44.446;26.000;2023-09-07T01:44:27;21.80;56.40
24426;DHT22;12611;44.446;26.000;2023-09-07T01:46:57;21.80;56.50
24426;DHT22;12611;44.446;26.000;2023-09-07T01:49:27;21.70;56.50
24426;DHT22;12611;44.446;26.000;2023-09-07T01:51:59;21.70;56.70
24426;DHT22;12611;44.446;26.000;2023-09-07T01:54:28;21.70;56.80
24426;DHT22;12611;44.446;26.000;2023-09-07T01:56:59;21.70;56.80
24426;DHT22;12611;44.446;26.000;2023-09-07T01:59:28;21.70;56.90
24426;DHT22;12611;44.446;26.000;2023-09-07T02:01:56;21.60;57.10
24426;DHT22;12611;44.446;26.000;2023-09-07T02:04:28;21.60;57.30
24426;DHT22;12611;44.446;26.000;2023-09-07T02:06:57;21.60;57.20
24426;DHT22;12611;44.446;26.000;2023-09-07T02:09:27;21.50;57.30
24426;DHT22;12611;44.446;26.000;2023-09-07T02:11:56;21.50;57.40
24426;DHT22;12611;44.446;26.000;2023-09-07T02:14:25;21.50;58.10
24426;DHT22;12611;44.446;26.000;2023-09-07T02:16:53;21.40;57.30
24426;DHT22;12611;44.446;26.000;2023-09-07T02:19:22;21.40;57.50
24426;DHT22;12611;44.446;26.000;2023-09-07T02:21:52;21.40;57.80
24426;DHT22;12611;44.446;26.000;2023-09-07T02:24:21;21.30;58.00
24426;DHT22;12611;44.446;26.000;2023-09-07T02:26:52;21.30;57.90
24426;DHT22;12611;44.446;26.000;2023-09-07T02:29:20;21.30;58.20
24426;DHT22;12611;44.446;26.000;2023-09-07T02:31:49;21.30;58.10
24426;DHT22;12611;44.446;26.000;2023-09-07T02:34:18;21.30;58.20
24426;DHT22;12611;44.446;26.000;2023-09-07T02:36:47;21.30;58.20
24426;DHT22;12611;44.446;26.000;2023-09-07T02:39:15;21.30;58.30
24426;DHT22;12611;44.446;26.000;2023-09-07T02:41:44;21.20;58.40
24426;DHT22;12611;44.446;26.000;2023-09-07T02:44:15;21.20;58.50
24426;DHT22;12611;44.446;26.000;2023-09-07T02:46:43;21.20;58.70
24426;DHT22;12611;44.446;26.000;2023-09-07T02:49:12;21.10;58.60
24426;DHT22;12611;44.446;26.000;2023-09-07T02:51:40;21.10;58.70
24426;DHT22;12611;44.446;26.000;2023-09-07T02:54:09;21.10;58.80
24426;DHT22;12611;44.446;26.000;2023-09-07T02:56:38;21.10;58.90
24426;DHT22;12611;44.446;26.000;2023-09-07T02:59:07;21.00;59.00
24426;DHT22;12611;44.446;26.000;2023-09-07T03:01:38;21.00;59.00
24426;DHT22;12611;44.446;26.000;2023-09-07T03:04:07;21.00;59.10
24426;DHT22;12611;44.446;26.000;2023-09-07T03:06:35;21.00;59.10
24426;DHT22;12611;44.446;26.000;2023-09-07T03:09:07;21.00;59.20
24426;DHT22;12611;44.446;26.000;2023-09-07T03:11:36;20.90;59.40
24426;DHT22;12611;44.446;26.000;2023-09-07T03:14:04;20.90;59.40
24426;DHT22;12611;44.446;26.000;2023-09-07T03:16:33;20.90;59.40
24426;DHT22;12611;44.446;26.000;2023-09-07T03:19:03;20.90;59.60
24426;DHT22;12611;44.446;26.000;2023-09-07T03:21:32;20.90;59.70
24426;DHT22;12611;44.446;26.000;2023-09-07T03:24:01;20.90;59.90
24426;DHT22;12611;44.446;26.000;2023-09-07T03:26:30;20.90;60.10
24426;DHT22;12611;44.446;26.000;2023-09-07T03:28:58;20.90;60.10
24426;DHT22;12611;44.446;26.000;2023-09-07T03:31:27;20.80;59.90
24426;DHT22;12611;44.446;26.000;2023-09-07T03:33:56;20.80;59.90
24426;DHT22;12611;44.446;26.000;2023-09-07T03:36:26;20.80;60.20
24426;DHT22;12611;44.446;26.000;2023-09-07T03:38:55;20.80;60.10
24426;DHT22;12611;44.446;26.000;2023-09-07T03:41:24;20.80;60.20
24426;DHT22;12611;44.446;26.000;2023-09-07T03:43:57;20.70;60.40
24426;DHT22;12611;44.446;26.000;2023-09-07T03:46:26;20.70;60.20
24426;DHT22;12611;44.446;26.000;2023-09-07T03:48:55;20.70;60.10
24426;DHT22;12611;44.446;26.000;2023-09-07T03:51:23;20.70;60.20
24426;DHT22;12611;44.446;26.000;2023-09-07T03:53:53;20.70;60.30
24426;DHT22;12611;44.446;26.000;2023-09-07T03:56:22;20.70;60.40
24426;DHT22;12611;44.446;26.000;2023-09-07T03:58:50;20.70;60.50
24426;DHT22;12611;44.446;26.000;2023-09-07T04:01:19;20.70;60.50
24426;DHT22;12611;44.446;26.000;2023-09-07T04:03:48;20.70;60.40
24426;DHT22;12611;44.446;26.000;2023-09-07T04:06:17;20.60;60.50
24426;DHT22;12611;44.446;26.000;2023-09-07T04:08:46;20.60;60.50
24426;DHT22;12611;44.446;26.000;2023-09-07T04:11:16;20.70;60.80
24426;DHT22;12611;44.446;26.000;2023-09-07T04:13:45;20.60;60.70
24426;DHT22;12611;44.446;26.000;2023-09-07T04:16:14;20.60;60.80
24426;DHT22;12611;44.446;26.000;2023-09-07T04:18:43;20.60;61.00
24426;DHT22;12611;44.446;26.000;2023-09-07T04:21:12;20.60;61.00
24426;DHT22;12611;44.446;26.000;2023-09-07T04:26:51;20.60;61.40
24426;DHT22;12611;44.446;26.000;2023-09-07T04:29:19;20.70;61.50
24426;DHT22;12611;44.446;26.000;2023-09-07T04:31:48;20.60;61.60
24426;DHT22;12611;44.446;26.000;2023-09-07T04:34:16;20.60;61.50
24426;DHT22;12611;44.446;26.000;2023-09-07T04:36:45;20.70;61.60
24426;DHT22;12611;44.446;26.000;2023-09-07T04:39:13;20.70;61.70
24426;DHT22;12611;44.446;26.000;2023-09-07T04:41:42;20.70;61.50
24426;DHT22;12611;44.446;26.000;2023-09-07T04:44:12;20.70;61.70
24426;DHT22;12611;44.446;26.000;2023-09-07T04:46:41;20.80;61.80
24426;DHT22;12611;44.446;26.000;2023-09-07T04:49:11;20.80;61.90
24426;DHT22;12611;44.446;26.000;2023-09-07T04:51:40;20.80;61.80
24426;DHT22;12611;44.446;26.000;2023-09-07T04:54:08;20.80;62.00
24426;DHT22;12611;44.446;26.000;2023-09-07T04:56:37;20.80;61.90
24426;DHT22;12611;44.446;26.000;2023-09-07T04:59:06;20.90;62.00
24426;DHT22;12611;44.446;26.000;2023-09-07T05:01:38;20.90;62.00
24426;DHT22;12611;44.446;26.000;2023-09-07T05:04:07;20.90;61.70
24426;DHT22;12611;44.446;26.000;2023-09-07T05:17:57;21.20;62.00
24426;DHT22;12611;44.446;26.000;2023-09-07T05:20:30;21.30;62.00
24426;DHT22;12611;44.446;26.000;2023-09-07T05:22:59;21.40;61.90
24426;DHT22;12611;44.446;26.000;2023-09-07T05:25:28;21.40;62.00
24426;DHT22;12611;44.446;26.000;2023-09-07T05:28:00;21.50;62.20
24426;DHT22;12611;44.446;26.000;2023-09-07T05:30:29;21.60;62.10
24426;DHT22;12611;44.446;26.000;2023-09-07T05:33:00;21.70;62.40
24426;DHT22;12611;44.446;26.000;2023-09-07T05:35:28;21.70;62.20
24426;DHT22;12611;44.446;26.000;2023-09-07T05:38:04;21.80;62.10
24426;DHT22;12611;44.446;26.000;2023-09-07T05:40:34;21.90;61.70
24426;DHT22;12611;44.446;26.000;2023-09-07T05:43:04;22.00;61.00
24426;DHT22;12611;44.446;26.000;2023-09-07T05:45:35;22.10;61.00
24426;DHT22;12611;44.446;26.000;2023-09-07T05:48:06;22.20;60.80
24426;DHT22;12611;44.446;26.000;2023-09-07T05:50:37;22.30;60.50
24426;DHT22;12611;44.446;26.000;2023-09-07T05:53:07;22.40;59.60
24426;DHT22;12611;44.446;26.000;2023-09-07T05:55:36;22.50;59.40
24426;DHT22;12611;44.446;26.000;2023-09-07T05:58:06;22.50;59.30
24426;DHT22;12611;44.446;26.000;2023-09-07T06:00:35;22.60;59.40
24426;DHT22;12611;44.446;26.000;2023-09-07T06:03:07;22.70;59.20
24426;DHT22;12611;44.446;26.000;2023-09-07T06:05:37;22.80;58.90
24426;DHT22;12611;44.446;26.000;2023-09-07T06:08:07;22.90;58.80
24426;DHT22;12611;44.446;26.000;2023-09-07T06:10:36;23.00;58.90
24426;DHT22;12611;44.446;26.000;2023-09-07T06:13:05;23.10;58.80
24426;DHT22;12611;44.446;26.000;2023-09-07T06:15:33;23.10;59.40
24426;DHT22;12611;44.446;26.000;2023-09-07T06:18:02;23.20;58.50
24426;DHT22;12611;44.446;26.000;2023-09-07T06:20:34;23.30;58.50
24426;DHT22;12611;44.446;26.000;2023-09-07T06:23:03;23.40;58.30
24426;DHT22;12611;44.446;26.000;2023-09-07T06:25:32;23.50;58.20
24426;DHT22;12611;44.446;26.000;2023-09-07T06:28:00;23.50;58.00
24426;DHT22;12611;44.446;26.000;2023-09-07T06:30:29;23.60;57.70
24426;DHT22;12611;44.446;26.000;2023-09-07T06:33:00;23.70;57.80
24426;DHT22;12611;44.446;26.000;2023-09-07T06:35:29;23.80;57.90
24426;DHT22;12611;44.446;26.000;2023-09-07T06:37:59;24.00;57.80
24426;DHT22;12611;44.446;26.000;2023-09-07T06:40:28;24.00;57.60
24426;DHT22;12611;44.446;26.000;2023-09-07T06:42:58;24.10;57.10
24426;DHT22;12611;44.446;26.000;2023-09-07T06:45:34;24.30;57.30
24426;DHT22;12611;44.446;26.000;2023-09-07T06:48:03;24.40;57.40
24426;DHT22;12611;44.446;26.000;2023-09-07T06:50:32;24.50;57.20
24426;DHT22;12611;44.446;26.000;2023-09-07T06:53:02;24.60;57.20
24426;DHT22;12611;44.446;26.000;2023-09-07T06:55:30;24.70;57.00
24426;DHT22;12611;44.446;26.000;2023-09-07T06:57:59;24.80;56.80
24426;DHT22;12611;44.446;26.000;2023-09-07T07:00:28;24.90;56.50
24426;DHT22;12611;44.446;26.000;2023-09-07T07:02:57;25.00;56.50
24426;DHT22;12611;44.446;26.000;2023-09-07T07:05:26;25.20;56.40
24426;DHT22;12611;44.446;26.000;2023-09-07T07:07:56;25.20;56.40
24426;DHT22;12611;44.446;26.000;2023-09-07T07:10:26;25.30;55.90
24426;DHT22;12611;44.446;26.000;2023-09-07T07:12:54;25.40;55.60
24426;DHT22;12611;44.446;26.000;2023-09-07T07:15:23;25.40;55.40
24426;DHT22;12611;44.446;26.000;2023-09-07T07:17:51;25.40;55.10
24426;DHT22;12611;44.446;26.000;2023-09-07T07:20:20;25.50;55.10
24426;DHT22;12611;44.446;26.000;2023-09-07T07:22:48;25.50;54.50
24426;DHT22;12611;44.446;26.000;2023-09-07T07:25:17;25.50;54.70
24426;DHT22;12611;44.446;26.000;2023-09-07T07:27:47;25.60;54.70
24426;DHT22;12611;44.446;26.000;2023-09-07T07:30:16;25.60;54.60
24426;DHT22;12611;44.446;26.000;2023-09-07T07:32:44;25.60;54.50
24426;DHT22;12611;44.446;26.000;2023-09-07T07:35:13;25.60;54.50
24426;DHT22;12611;44.446;26.000;2023-09-07T07:37:42;25.60;54.60
24426;DHT22;12611;44.446;26.000;2023-09-07T07:40:12;25.60;54.70
24426;DHT22;12611;44.446;26.000;2023-09-07T07:42:41;25.70;54.90
24426;DHT22;12611;44.446;26.000;2023-09-07T07:45:12;25.80;55.00
24426;DHT22;12611;44.446;26.000;2023-09-07T07:47:41;25.80;54.70
24426;DHT22;12611;44.446;26.000;2023-09-07T07:50:10;25.80;54.80
24426;DHT22;12611;44.446;26.000;2023-09-07T07:52:40;25.90;54.40
24426;DHT22;12611;44.446;26.000;2023-09-07T07:55:09;25.90;53.40
24426;DHT22;12611;44.446;26.000;2023-09-07T07:57:39;26.00;53.90
24426;DHT22;12611;44.446;26.000;2023-09-07T08:00:08;26.00;53.90
24426;DHT22;12611;44.446;26.000;2023-09-07T08:02:38;26.10;53.60
24426;DHT22;12611;44.446;26.000;2023-09-07T08:05:07;26.20;53.30
24426;DHT22;12611;44.446;26.000;2023-09-07T08:07:36;26.20;53.10
24426;DHT22;12611;44.446;26.000;2023-09-07T08:10:05;26.30;52.30
24426;DHT22;12611;44.446;26.000;2023-09-07T08:12:34;26.40;52.60
24426;DHT22;12611;44.446;26.000;2023-09-07T08:15:03;26.50;52.70
24426;DHT22;12611;44.446;26.000;2023-09-07T08:17:31;26.60;52.80
24426;DHT22;12611;44.446;26.000;2023-09-07T08:20:03;26.70;52.60
24426;DHT22;12611;44.446;26.000;2023-09-07T08:22:31;26.80;52.40
24426;DHT22;12611;44.446;26.000;2023-09-07T08:25:02;26.90;52.20
24426;DHT22;12611;44.446;26.000;2023-09-07T08:27:31;26.90;51.80
24426;DHT22;12611;44.446;26.000;2023-09-07T08:30:00;27.00;51.50
24426;DHT22;12611;44.446;26.000;2023-09-07T08:32:28;27.10;51.70
24426;DHT22;12611;44.446;26.000;2023-09-07T08:34:59;27.10;51.00
24426;DHT22;12611;44.446;26.000;2023-09-07T08:37:30;27.10;50.70
24426;DHT22;12611;44.446;26.000;2023-09-07T08:39:58;27.20;50.80
24426;DHT22;12611;44.446;26.000;2023-09-07T08:42:27;27.20;50.40
24426;DHT22;12611;44.446;26.000;2023-09-07T08:44:58;27.20;50.50
24426;DHT22;12611;44.446;26.000;2023-09-07T08:47:30;27.30;50.50
24426;DHT22;12611;44.446;26.000;2023-09-07T08:49:59;27.30;50.70
24426;DHT22;12611;44.446;26.000;2023-09-07T08:52:29;27.40;51.10
24426;DHT22;12611;44.446;26.000;2023-09-07T08:54:58;27.40;50.60
24426;DHT22;12611;44.446;26.000;2023-09-07T08:57:30;27.40;50.20
24426;DHT22;12611;44.446;26.000;2023-09-07T08:59:59;27.50;50.20
24426;DHT22;12611;44.446;26.000;2023-09-07T09:02:27;27.60;50.20
24426;DHT22;12611;44.446;26.000;2023-09-07T09:04:56;27.60;49.70
24426;DHT22;12611;44.446;26.000;2023-09-07T09:07:26;27.70;49.20
24426;DHT22;12611;44.446;26.000;2023-09-07T09:10:04;27.70;49.10
24426;DHT22;12611;44.446;26.000;2023-09-07T09:12:33;27.80;49.60
24426;DHT22;12611;44.446;26.000;2023-09-07T09:15:01;27.80;49.40
24426;DHT22;12611;44.446;26.000;2023-09-07T09:17:30;27.90;49.40
24426;DHT22;12611;44.446;26.000;2023-09-07T09:19:59;27.90;48.80
24426;DHT22;12611;44.446;26.000;2023-09-07T09:22:29;28.00;49.10
24426;DHT22;12611;44.446;26.000;2023-09-07T09:25:04;28.00;48.60
24426;DHT22;12611;44.446;26.000;2023-09-07T09:27:33;28.00;47.30
24426;DHT22;12611;44.446;26.000;2023-09-07T09:30:01;28.10;48.30
24426;DHT22;12611;44.446;26.000;2023-09-07T09:32:31;28.10;48.40
24426;DHT22;12611;44.446;26.000;2023-09-07T09:35:00;28.10;48.00
24426;DHT22;12611;44.446;26.000;2023-09-07T09:37:32;28.20;48.20
24426;DHT22;12611;44.446;26.000;2023-09-07T09:40:04;28.30;48.60
24426;DHT22;12611;44.446;26.000;2023-09-07T09:42:37;28.30;48.40
24426;DHT22;12611;44.446;26.000;2023-09-07T09:45:08;28.40;48.30
24426;DHT22;12611;44.446;26.000;2023-09-07T09:47:39;28.40;48.50
24426;DHT22;12611;44.446;26.000;2023-09-07T09:50:16;28.40;48.20
24426;DHT22;12611;44.446;26.000;2023-09-07T09:52:47;28.50;48.40
24426;DHT22;12611;44.446;26.000;2023-09-07T09:55:17;28.50;48.10
24426;DHT22;12611;44.446;26.000;2023-09-07T09:57:46;28.40;47.90
24426;DHT22;12611;44.446;26.000;2023-09-07T10:00:17;28.50;48.10
24426;DHT22;12611;44.446;26.000;2023-09-07T10:02:59;28.50;47.90
24426;DHT22;12611;44.446;26.000;2023-09-07T10:05:30;28.50;48.00
24426;DHT22;12611;44.446;26.000;2023-09-07T10:08:01;28.50;48.10
24426;DHT22;12611;44.446;26.000;2023-09-07T10:10:35;28.50;47.70
24426;DHT22;12611;44.446;26.000;2023-09-07T10:13:05;28.50;47.80
24426;DHT22;12611;44.446;26.000;2023-09-07T10:15:33;28.50;48.00
24426;DHT22;12611;44.446;26.000;2023-09-07T10:18:05;28.60;48.20
24426;DHT22;12611;44.446;26.000;2023-09-07T10:20:50;28.70;48.20
24426;DHT22;12611;44.446;26.000;2023-09-07T10:23:20;28.70;47.60
24426;DHT22;12611;44.446;26.000;2023-09-07T10:25:51;28.70;47.70
24426;DHT22;12611;44.446;26.000;2023-09-07T10:28:21;28.80;47.80
24426;DHT22;12611;44.446;26.000;2023-09-07T10:31:03;28.80;47.40
24426;DHT22;12611;44.446;26.000;2023-09-07T10:33:32;28.80;47.40
24426;DHT22;12611;44.446;26.000;2023-09-07T10:36:03;28.80;48.00
24426;DHT22;12611;44.446;26.000;2023-09-07T10:38:31;28.80;47.60
24426;DHT22;12611;44.446;26.000;2023-09-07T10:41:03;28.80;47.40
24426;DHT22;12611;44.446;26.000;2023-09-07T10:43:33;28.80;47.40
24426;DHT22;12611;44.446;26.000;2023-09-07T10:46:02;28.80;47.50
24426;DHT22;12611;44.446;26.000;2023-09-07T10:48:31;28.80;47.00
24426;DHT22;12611;44.446;26.000;2023-09-07T10:51:00;28.80;47.00
24426;DHT22;12611;44.446;26.000;2023-09-07T10:53:30;28.90;46.80
24426;DHT22;12611;44.446;26.000;2023-09-07T10:56:03;28.90;47.10
24426;DHT22;12611;44.446;26.000;2023-09-07T10:58:34;29.00;47.30
24426;DHT22;12611;44.446;26.000;2023-09-07T11:01:03;29.00;47.40
24426;DHT22;12611;44.446;26.000;2023-09-07T11:03:32;29.10;47.40
24426;DHT22;12611;44.446;26.000;2023-09-07T11:06:03;29.20;46.80
24426;DHT22;12611;44.446;26.000;2023-09-07T11:08:32;29.20;46.80
24426;DHT22;12611;44.446;26.000;2023-09-07T11:11:02;29.30;47.00
24426;DHT22;12611;44.446;26.000;2023-09-07T11:13:31;29.40;46.90
24426;DHT22;12611;44.446;26.000;2023-09-07T11:16:03;29.40;46.50
24426;DHT22;12611;44.446;26.000;2023-09-07T11:18:33;29.50;46.50
24426;DHT22;12611;44.446;26.000;2023-09-07T11:21:03;29.50;46.20
24426;DHT22;12611;44.446;26.000;2023-09-07T11:23:31;29.50;46.00
24426;DHT22;12611;44.446;26.000;2023-09-07T11:26:08;29.60;46.10
24426;DHT22;12611;44.446;26.000;2023-09-07T11:28:37;29.60;45.90
24426;DHT22;12611;44.446;26.000;2023-09-07T11:31:06;29.70;46.20
24426;DHT22;12611;44.446;26.000;2023-09-07T11:33:34;29.70;45.90
24426;DHT22;12611;44.446;26.000;2023-09-07T11:36:03;29.70;45.90
24426;DHT22;12611;44.446;26.000;2023-09-07T11:38:36;29.80;46.00
24426;DHT22;12611;44.446;26.000;2023-09-07T11:41:06;29.80;45.40
24426;DHT22;12611;44.446;26.000;2023-09-07T11:43:35;29.90;44.80
24426;DHT22;12611;44.446;26.000;2023-09-07T11:46:05;29.90;45.00
24426;DHT22;12611;44.446;26.000;2023-09-07T11:48:38;30.00;44.80
24426;DHT22;12611;44.446;26.000;2023-09-07T11:51:06;30.10;44.90
24426;DHT22;12611;44.446;26.000;2023-09-07T11:53:35;30.00;45.10
24426;DHT22;12611;44.446;26.000;2023-09-07T11:56:05;30.10;45.20
24426;DHT22;12611;44.446;26.000;2023-09-07T11:58:34;30.20;45.30
24426;DHT22;12611;44.446;26.000;2023-09-07T12:01:03;30.20;45.20
24426;DHT22;12611;44.446;26.000;2023-09-07T12:03:33;30.20;44.70
24426;DHT22;12611;44.446;26.000;2023-09-07T12:06:02;30.20;44.60
24426;DHT22;12611;44.446;26.000;2023-09-07T12:08:31;30.30;44.40
24426;DHT22;12611;44.446;26.000;2023-09-07T12:11:00;30.20;44.10
24426;DHT22;12611;44.446;26.000;2023-09-07T12:13:30;30.30;43.90
24426;DHT22;12611;44.446;26.000;2023-09-07T12:15:59;30.30;44.30
24426;DHT22;12611;44.446;26.000;2023-09-07T12:18:29;30.30;44.20
24426;DHT22;12611;44.446;26.000;2023-09-07T12:20:58;30.30;44.30
24426;DHT22;12611;44.446;26.000;2023-09-07T12:23:26;30.30;44.20
24426;DHT22;12611;44.446;26.000;2023-09-07T12:25:54;30.30;43.70
24426;DHT22;12611;44.446;26.000;2023-09-07T12:28:23;30.30;43.30
24426;DHT22;12611;44.446;26.000;2023-09-07T12:30:53;30.20;42.60
24426;DHT22;12611;44.446;26.000;2023-09-07T12:33:21;30.30;43.20
24426;DHT22;12611;44.446;26.000;2023-09-07T12:35:50;30.30;43.60
24426;DHT22;12611;44.446;26.000;2023-09-07T12:38:18;30.40;43.90
24426;DHT22;12611;44.446;26.000;2023-09-07T12:40:49;30.40;43.70
24426;DHT22;12611;44.446;26.000;2023-09-07T12:43:17;30.40;43.80
24426;DHT22;12611;44.446;26.000;2023-09-07T12:45:46;30.50;43.80
24426;DHT22;12611;44.446;26.000;2023-09-07T12:48:16;30.50;43.90
24426;DHT22;12611;44.446;26.000;2023-09-07T12:50:44;30.50;43.00
24426;DHT22;12611;44.446;26.000;2023-09-07T12:53:40;30.50;43.30
24426;DHT22;12611;44.446;26.000;2023-09-07T12:56:20;30.50;42.10
24426;DHT22;12611;44.446;26.000;2023-09-07T12:58:49;30.40;41.80
24426;DHT22;12611;44.446;26.000;2023-09-07T13:12:33;30.50;42.10
24426;DHT22;12611;44.446;26.000;2023-09-07T13:15:25;30.60;42.50
24426;DHT22;12611;44.446;26.000;2023-09-07T13:19:32;30.60;42.40
24426;DHT22;12611;44.446;26.000;2023-09-07T13:21:49;30.60;42.20
24426;DHT22;12611;44.446;26.000;2023-09-07T13:24:39;30.70;42.00
24426;DHT22;12611;44.446;26.000;2023-09-07T13:27:08;30.70;41.50
24426;DHT22;12611;44.446;26.000;2023-09-07T13:29:38;30.70;41.40
24426;DHT22;12611;44.446;26.000;2023-09-07T13:32:07;30.70;41.00
24426;DHT22;12611;44.446;26.000;2023-09-07T13:34:35;30.80;41.20
24426;DHT22;12611;44.446;26.000;2023-09-07T13:37:04;30.90;42.20
24426;DHT22;12611;44.446;26.000;2023-09-07T13:39:32;30.90;39.90
24426;DHT22;12611;44.446;26.000;2023-09-07T13:42:01;31.10;40.10
24426;DHT22;12611;44.446;26.000;2023-09-07T13:44:29;31.10;39.50
24426;DHT22;12611;44.446;26.000;2023-09-07T13:46:59;31.20;39.60
24426;DHT22;12611;44.446;26.000;2023-09-07T13:49:28;31.20;39.30
24426;DHT22;12611;44.446;26.000;2023-09-07T13:51:57;31.20;39.10
24426;DHT22;12611;44.446;26.000;2023-09-07T13:54:25;31.40;39.40
24426;DHT22;12611;44.446;26.000;2023-09-07T13:56:57;31.40;39.90
24426;DHT22;12611;44.446;26.000;2023-09-07T13:59:26;31.70;39.70
24426;DHT22;12611;44.446;26.000;2023-09-07T14:02:01;32.50;39.20
24426;DHT22;12611;44.446;26.000;2023-09-07T14:04:29;32.70;39.40
24426;DHT22;12611;44.446;26.000;2023-09-07T14:06:58;32.80;38.60
24426;DHT22;12611;44.446;26.000;2023-09-07T14:09:27;33.10;37.50
24426;DHT22;12611;44.446;26.000;2023-09-07T14:11:55;33.40;37.30
24426;DHT22;12611;44.446;26.000;2023-09-07T14:14:24;32.90;37.60
24426;DHT22;12611;44.446;26.000;2023-09-07T14:16:53;32.50;38.20
24426;DHT22;12611;44.446;26.000;2023-09-07T14:19:25;32.20;38.40
24426;DHT22;12611;44.446;26.000;2023-09-07T14:21:58;32.00;38.60
24426;DHT22;12611;44.446;26.000;2023-09-07T14:24:26;32.00;38.10
24426;DHT22;12611;44.446;26.000;2023-09-07T14:26:55;31.90;38.20
24426;DHT22;12611;44.446;26.000;2023-09-07T14:29:29;31.80;38.80
24426;DHT22;12611;44.446;26.000;2023-09-07T14:31:58;31.70;38.80
24426;DHT22;12611;44.446;26.000;2023-09-07T14:34:28;31.80;39.00
24426;DHT22;12611;44.446;26.000;2023-09-07T14:36:56;31.70;39.40
24426;DHT22;12611;44.446;26.000;2023-09-07T14:39:25;31.50;39.50
24426;DHT22;12611;44.446;26.000;2023-09-07T14:41:54;31.40;39.80
24426;DHT22;12611;44.446;26.000;2023-09-07T14:44:23;31.40;40.00
24426;DHT22;12611;44.446;26.000;2023-09-07T14:46:51;31.30;39.90
24426;DHT22;12611;44.446;26.000;2023-09-07T14:49:20;31.20;39.50
24426;DHT22;12611;44.446;26.000;2023-09-07T14:51:50;31.30;39.70
24426;DHT22;12611;44.446;26.000;2023-09-07T14:54:18;31.30;39.90
24426;DHT22;12611;44.446;26.000;2023-09-07T14:56:47;31.10;40.10
24426;DHT22;12611;44.446;26.000;2023-09-07T14:59:15;31.10;40.00
24426;DHT22;12611;44.446;26.000;2023-09-07T15:01:44;31.20;40.50
24426;DHT22;12611;44.446;26.000;2023-09-07T15:04:21;31.40;39.90
24426;DHT22;12611;44.446;26.000;2023-09-07T15:06:51;31.50;40.20
24426;DHT22;12611;44.446;26.000;2023-09-07T15:09:20;31.40;40.40
24426;DHT22;12611;44.446;26.000;2023-09-07T15:11:48;31.20;40.40
24426;DHT22;12611;44.446;26.000;2023-09-07T15:14:17;31.10;40.50
24426;DHT22;12611;44.446;26.000;2023-09-07T15:16:45;31.10;40.50
24426;DHT22;12611;44.446;26.000;2023-09-07T15:19:14;31.00;40.70
24426;DHT22;12611;44.446;26.000;2023-09-07T15:21:42;30.80;41.00
24426;DHT22;12611;44.446;26.000;2023-09-07T15:24:12;30.80;41.90
24426;DHT22;12611;44.446;26.000;2023-09-07T15:26:41;30.70;41.50
24426;DHT22;12611;44.446;26.000;2023-09-07T15:29:11;30.50;41.60
24426;DHT22;12611;44.446;26.000;2023-09-07T15:31:40;30.40;41.70
24426;DHT22;12611;44.446;26.000;2023-09-07T15:34:09;30.30;41.80
24426;DHT22;12611;44.446;26.000;2023-09-07T15:36:37;30.20;42.30
24426;DHT22;12611;44.446;26.000;2023-09-07T15:39:06;30.00;42.50
24426;DHT22;12611;44.446;26.000;2023-09-07T15:41:36;29.90;42.50
24426;DHT22;12611;44.446;26.000;2023-09-07T15:44:04;29.80;42.50
24426;DHT22;12611;44.446;26.000;2023-09-07T15:46:33;29.80;42.70
24426;DHT22;12611;44.446;26.000;2023-09-07T15:49:02;29.70;43.10
24426;DHT22;12611;44.446;26.000;2023-09-07T15:51:30;29.60;43.00
24426;DHT22;12611;44.446;26.000;2023-09-07T15:53:59;29.50;43.20
24426;DHT22;12611;44.446;26.000;2023-09-07T15:56:27;29.40;43.10
24426;DHT22;12611;44.446;26.000;2023-09-07T15:58:58;29.30;43.10